Time;durP1;ratioP1;P1;durP2;ratioP2;P2;SDS_P1;SDS_P2;PMS_P1;PMS_P2;Temp;Humidity;BMP_temperature;BMP_pressure;BME280_temperature;BME280_humidity;BME280_pressure;Samples;Min_cycle;Max_cycle;Signal;HPM_P1;HPM_P2
2023/09/27 00:00:59;;;;;;;0.20;0.20;;;15.90;99.90;;;;;;5087826;28;20048;-81
2023/09/27 00:03:25;;;;;;;0.10;0.10;;;15.90;99.90;;;;;;5081130;28;20121;-81
2023/09/27 00:05:51;;;;;;;0.17;0.17;;;15.90;99.90;;;;;;5090542;28;20121;-80
2023/09/27 00:08:16;;;;;;;0.17;0.17;;;15.80;99.90;;;;;;5092998;28;20130;-81
2023/09/27 00:10:42;;;;;;;0.20;0.20;;;15.90;99.90;;;;;;5090181;28;20039;-81
2023/09/27 00:13:09;;;;;;;0.20;0.20;;;15.80;99.90;;;;;;5088115;28;20043;-80
2023/09/27 00:15:34;;;;;;;0.13;0.13;;;15.80;99.90;;;;;;5087664;28;20062;-81
2023/09/27 00:18:00;;;;;;;0.10;0.10;;;15.80;99.90;;;;;;5089091;28;20501;-81
2023/09/27 00:20:26;;;;;;;0.10;0.10;;;15.80;99.90;;;;;;5088649;28;20534;-81
2023/09/27 00:22:54;;;;;;;0.13;0.13;;;15.80;99.90;;;;;;5087290;28;20036;-81
2023/09/27 00:25:20;;;;;;;0.20;0.20;;;15.80;99.90;;;;;;5090115;28;20127;-80
2023/09/27 00:27:46;;;;;;;0.10;0.10;;;15.80;99.90;;;;;;5089730;28;22016;-81
2023/09/27 00:30:15;;;;;;;0.10;0.10;;;15.80;99.90;;;;;;5091772;28;20163;-81
2023/09/27 00:32:47;;;;;;;0.45;0.20;;;15.80;99.90;;;;;;5091614;28;20048;-81
2023/09/27 00:35:21;;;;;;;0.15;0.15;;;15.80;99.90;;;;;;5090698;28;20574;-81
2023/09/27 00:37:48;;;;;;;0.20;0.20;;;15.80;99.90;;;;;;5089816;28;20052;-81
2023/09/27 00:40:15;;;;;;;0.10;0.10;;;15.80;99.90;;;;;;5092058;28;20392;-81
2023/09/27 00:42:40;;;;;;;0.10;0.10;;;15.80;99.90;;;;;;5074938;28;20044;-81
2023/09/27 00:45:07;;;;;;;0.13;0.13;;;15.80;99.90;;;;;;5090492;28;20101;-80
2023/09/27 00:47:34;;;;;;;0.10;0.10;;;15.80;99.90;;;;;;5108394;28;20131;-81
2023/09/27 00:50:00;;;;;;;0.20;0.20;;;15.70;99.90;;;;;;5090004;28;20048;-81
2023/09/27 00:52:25;;;;;;;0.13;0.13;;;15.70;99.90;;;;;;5088468;28;20086;-81
2023/09/27 00:54:53;;;;;;;0.20;0.20;;;15.70;99.90;;;;;;5085084;28;20519;-81
2023/09/27 00:57:19;;;;;;;0.10;0.10;;;15.70;99.90;;;;;;5090431;28;20047;-80
2023/09/27 00:59:45;;;;;;;0.20;0.20;;;15.70;99.90;;;;;;5090677;28;20119;-81
2023/09/27 01:02:12;;;;;;;0.10;0.10;;;15.60;99.90;;;;;;5088086;28;20048;-81
2023/09/27 01:04:39;;;;;;;0.20;0.20;;;15.60;99.90;;;;;;5089058;28;20044;-81
2023/09/27 01:07:08;;;;;;;0.20;0.20;;;15.60;99.90;;;;;;5081333;28;20060;-81
2023/09/27 01:09:34;;;;;;;0.10;0.10;;;15.60;99.90;;;;;;5080768;28;20044;-81
2023/09/27 01:12:00;;;;;;;0.20;0.20;;;15.60;99.90;;;;;;5083362;28;20055;-81
2023/09/27 01:14:26;;;;;;;0.10;0.10;;;15.60;99.90;;;;;;5089023;28;20060;-81
2023/09/27 01:16:51;;;;;;;0.20;0.20;;;15.50;99.90;;;;;;5090332;28;20407;-81
2023/09/27 01:19:17;;;;;;;0.20;0.20;;;15.50;99.90;;;;;;5089428;28;20048;-81
2023/09/27 01:21:44;;;;;;;0.20;0.20;;;15.50;99.90;;;;;;5089232;28;20552;-81
2023/09/27 01:24:11;;;;;;;0.10;0.10;;;15.50;99.90;;;;;;5091429;28;20393;-82
2023/09/27 01:26:37;;;;;;;0.10;0.10;;;15.50;99.90;;;;;;5090258;28;20117;-81
2023/09/27 01:29:04;;;;;;;0.10;0.10;;;15.50;99.90;;;;;;5085853;28;20071;-81
2023/09/27 01:31:31;;;;;;;0.20;0.20;;;15.60;99.90;;;;;;5087943;28;20062;-81
2023/09/27 01:33:57;;;;;;;0.20;0.20;;;15.50;99.90;;;;;;5090613;28;20044;-81
2023/09/27 01:36:22;;;;;;;0.10;0.10;;;15.50;99.90;;;;;;5088178;28;20127;-81
2023/09/27 01:38:48;;;;;;;0.20;0.20;;;15.50;99.90;;;;;;5089912;28;20105;-81
2023/09/27 01:41:14;;;;;;;0.20;0.20;;;15.50;99.90;;;;;;5089283;28;20040;-81
2023/09/27 01:43:40;;;;;;;0.20;0.20;;;15.50;99.90;;;;;;5087372;28;20062;-81
2023/09/27 01:46:06;;;;;;;0.13;0.13;;;15.50;99.90;;;;;;5089603;28;20036;-81
2023/09/27 01:48:31;;;;;;;0.13;0.13;;;15.50;99.90;;;;;;5089988;28;20147;-81
2023/09/27 01:50:57;;;;;;;0.20;0.20;;;15.50;99.90;;;;;;5088289;28;20551;-81
2023/09/27 01:53:23;;;;;;;0.13;0.13;;;15.50;99.90;;;;;;5088681;28;20479;-81
2023/09/27 01:55:48;;;;;;;0.10;0.10;;;15.40;99.90;;;;;;5086247;28;20040;-81
2023/09/27 01:58:14;;;;;;;0.20;0.20;;;15.40;99.90;;;;;;5088242;28;20475;-81
2023/09/27 02:00:40;;;;;;;0.10;0.10;;;15.40;99.90;;;;;;5088594;28;20048;-81
2023/09/27 02:03:05;;;;;;;0.10;0.10;;;15.40;99.90;;;;;;5091192;28;20463;-81
2023/09/27 02:05:31;;;;;;;0.10;0.10;;;15.40;99.90;;;;;;5087497;28;20105;-80
2023/09/27 02:07:57;;;;;;;0.10;0.10;;;15.30;99.90;;;;;;5090278;28;20051;-81
2023/09/27 02:10:23;;;;;;;0.20;0.20;;;15.30;99.90;;;;;;5089259;28;20495;-84
2023/09/27 02:12:49;;;;;;;0.20;0.20;;;15.30;99.90;;;;;;5088638;28;20043;-80
2023/09/27 02:15:16;;;;;;;0.20;0.20;;;15.30;99.90;;;;;;5087608;28;20415;-81
2023/09/27 02:17:42;;;;;;;0.20;0.20;;;15.20;99.90;;;;;;5086589;28;20132;-81
2023/09/27 02:20:11;;;;;;;0.20;0.20;;;15.20;99.90;;;;;;5088188;28;20070;-81
2023/09/27 02:22:38;;;;;;;0.20;0.20;;;15.30;99.90;;;;;;5072438;28;20123;-81
2023/09/27 02:25:06;;;;;;;0.20;0.20;;;15.20;99.90;;;;;;5075552;28;20376;-81
2023/09/27 02:27:32;;;;;;;0.20;0.20;;;15.20;99.90;;;;;;5088271;28;20146;-80
2023/09/27 02:29:57;;;;;;;0.20;0.20;;;15.20;99.90;;;;;;5089248;28;20520;-81
2023/09/27 02:32:24;;;;;;;0.20;0.20;;;15.20;99.90;;;;;;5086651;28;20048;-82
2023/09/27 02:34:50;;;;;;;0.20;0.20;;;15.10;99.90;;;;;;5088026;28;20383;-80
2023/09/27 02:37:17;;;;;;;0.10;0.10;;;15.10;99.90;;;;;;5088301;28;20051;-80
2023/09/27 02:39:43;;;;;;;0.17;0.17;;;15.10;99.90;;;;;;5086681;28;20424;-81
2023/09/27 02:42:12;;;;;;;0.20;0.20;;;15.10;99.90;;;;;;5088681;28;20199;-81
2023/09/27 02:44:38;;;;;;;0.20;0.20;;;15.00;99.90;;;;;;5080306;28;20040;-81
2023/09/27 02:47:04;;;;;;;0.20;0.20;;;15.00;99.90;;;;;;5085314;28;20768;-81
2023/09/27 02:49:30;;;;;;;0.20;0.20;;;15.00;99.90;;;;;;5086957;28;20047;-81
2023/09/27 02:51:55;;;;;;;0.13;0.13;;;15.00;99.90;;;;;;5085331;28;20073;-80
2023/09/27 02:54:21;;;;;;;0.20;0.20;;;15.00;99.90;;;;;;5087822;28;20138;-81
2023/09/27 02:56:47;;;;;;;0.20;0.20;;;15.00;99.90;;;;;;5079786;28;22044;-81
2023/09/27 02:59:14;;;;;;;0.10;0.10;;;15.00;99.90;;;;;;5087455;28;20040;-80
2023/09/27 03:01:40;;;;;;;0.10;0.10;;;15.00;99.90;;;;;;5087809;28;20043;-81
2023/09/27 03:04:07;;;;;;;0.20;0.20;;;14.90;99.90;;;;;;5087745;28;20403;-81
2023/09/27 03:06:35;;;;;;;0.15;0.15;;;14.90;99.90;;;;;;5086597;28;20046;-81
2023/09/27 03:09:01;;;;;;;0.20;0.20;;;14.90;99.90;;;;;;5086204;28;20480;-81
2023/09/27 03:11:27;;;;;;;0.10;0.10;;;14.90;99.90;;;;;;5083753;28;20049;-80
2023/09/27 03:13:53;;;;;;;0.17;0.17;;;14.90;99.90;;;;;;5075125;28;20388;-81
2023/09/27 03:16:20;;;;;;;0.17;0.17;;;14.90;99.90;;;;;;5073456;28;20052;-81
2023/09/27 03:18:45;;;;;;;0.20;0.20;;;14.90;99.90;;;;;;5086329;28;20044;-81
2023/09/27 03:21:12;;;;;;;0.10;0.10;;;14.90;99.90;;;;;;5085647;28;20050;-81
2023/09/27 03:23:38;;;;;;;0.10;0.10;;;14.90;99.90;;;;;;5075443;28;20044;-81
2023/09/27 03:26:04;;;;;;;0.10;0.10;;;14.90;99.90;;;;;;5087767;28;20094;-81
2023/09/27 03:28:30;;;;;;;0.10;0.10;;;14.80;99.90;;;;;;5083968;28;20051;-81
2023/09/27 03:30:56;;;;;;;0.20;0.20;;;14.80;99.90;;;;;;5084694;28;20058;-81
2023/09/27 03:33:22;;;;;;;0.13;0.13;;;14.80;99.90;;;;;;5085660;28;20495;-81
2023/09/27 03:35:47;;;;;;;0.10;0.10;;;14.80;99.90;;;;;;5085251;28;20538;-81
2023/09/27 03:38:13;;;;;;;0.10;0.10;;;14.80;99.90;;;;;;5079837;28;20495;-81
2023/09/27 03:40:42;;;;;;;0.10;0.10;;;14.80;99.90;;;;;;5087683;28;20055;-80
2023/09/27 03:43:08;;;;;;;0.10;0.10;;;14.80;99.90;;;;;;5079879;28;20515;-81
2023/09/27 03:45:35;;;;;;;0.20;0.20;;;14.70;99.90;;;;;;5087618;28;20044;-81
2023/09/27 03:48:04;;;;;;;0.20;0.20;;;14.80;99.90;;;;;;5086134;28;20048;-80
2023/09/27 03:50:30;;;;;;;0.20;0.20;;;14.70;99.90;;;;;;5078980;28;20089;-81
2023/09/27 03:52:57;;;;;;;0.10;0.10;;;14.70;99.90;;;;;;5104720;28;20039;-81
2023/09/27 03:55:22;;;;;;;0.20;0.20;;;14.70;99.90;;;;;;5087813;28;20040;-81
2023/09/27 03:57:48;;;;;;;0.10;0.10;;;14.70;99.90;;;;;;5082845;28;20052;-81
2023/09/27 04:00:16;;;;;;;0.10;0.10;;;14.60;99.90;;;;;;5086905;28;20527;-81
2023/09/27 04:02:42;;;;;;;0.20;0.20;;;14.60;99.90;;;;;;5081670;28;20076;-81
2023/09/27 04:05:09;;;;;;;0.20;0.20;;;14.60;99.90;;;;;;5081038;28;20043;-81
2023/09/27 04:07:35;;;;;;;0.10;0.10;;;14.60;99.90;;;;;;5087892;28;20051;-79
2023/09/27 04:10:01;;;;;;;0.20;0.20;;;14.60;99.90;;;;;;5077822;28;20078;-81
2023/09/27 04:12:27;;;;;;;0.20;0.20;;;14.60;99.90;;;;;;5072206;28;20123;-81
2023/09/27 04:14:52;;;;;;;0.20;0.20;;;14.60;99.90;;;;;;5087428;28;20558;-81
2023/09/27 04:17:18;;;;;;;0.10;0.10;;;14.70;99.90;;;;;;5085897;28;20138;-81
2023/09/27 04:19:44;;;;;;;0.10;0.10;;;14.60;99.90;;;;;;5085229;28;20048;-80
2023/09/27 04:22:09;;;;;;;0.20;0.20;;;14.60;99.90;;;;;;5075887;28;20063;-81
2023/09/27 04:24:36;;;;;;;0.20;0.20;;;14.60;99.90;;;;;;5087470;28;20101;-81
2023/09/27 04:27:03;;;;;;;0.10;0.10;;;14.60;99.90;;;;;;5087590;28;20496;-81
2023/09/27 04:29:29;;;;;;;0.10;0.10;;;14.60;99.90;;;;;;5086859;28;20578;-81
2023/09/27 04:31:55;;;;;;;0.20;0.20;;;14.50;99.90;;;;;;5085854;28;20047;-80
2023/09/27 04:34:21;;;;;;;0.10;0.10;;;14.50;99.90;;;;;;5087578;28;20052;-81
2023/09/27 04:36:47;;;;;;;0.10;0.10;;;14.50;99.90;;;;;;5082943;28;20071;-81
2023/09/27 04:39:17;;;;;;;0.20;0.20;;;14.50;99.90;;;;;;5077241;28;20036;-81
2023/09/27 04:41:44;;;;;;;0.10;0.10;;;14.50;99.90;;;;;;5068737;28;20055;-81
2023/09/27 04:44:10;;;;;;;0.20;0.20;;;14.50;99.90;;;;;;5070952;28;20376;-81
2023/09/27 04:46:35;;;;;;;0.10;0.10;;;14.40;99.90;;;;;;5088668;28;20055;-81
2023/09/27 04:49:02;;;;;;;0.20;0.20;;;14.50;99.90;;;;;;5088633;28;20047;-81
2023/09/27 04:51:28;;;;;;;0.20;0.20;;;14.40;99.90;;;;;;5082516;28;20431;-81
2023/09/27 04:53:53;;;;;;;0.20;0.20;;;14.40;99.90;;;;;;5087171;28;20416;-81
2023/09/27 04:56:19;;;;;;;0.20;0.20;;;14.40;99.90;;;;;;5090794;28;20546;-81
2023/09/27 04:58:45;;;;;;;0.20;0.20;;;14.40;99.90;;;;;;5081813;28;20040;-80
2023/09/27 05:01:10;;;;;;;0.10;0.10;;;14.30;99.90;;;;;;5086459;28;20127;-80
2023/09/27 05:03:37;;;;;;;0.13;0.13;;;14.30;99.90;;;;;;5088970;28;20044;-81
2023/09/27 05:06:03;;;;;;;0.10;0.10;;;14.30;99.90;;;;;;5086304;28;20495;-80
2023/09/27 05:08:29;;;;;;;0.20;0.20;;;14.30;99.90;;;;;;5085114;28;20522;-80
2023/09/27 05:10:56;;;;;;;0.10;0.10;;;14.30;99.90;;;;;;5083649;28;20036;-80
2023/09/27 05:13:24;;;;;;;0.20;0.20;;;14.30;99.90;;;;;;5089222;28;20054;-81
2023/09/27 05:15:52;;;;;;;0.10;0.10;;;14.30;99.90;;;;;;5084984;28;20051;-80
2023/09/27 05:18:18;;;;;;;0.20;0.20;;;14.20;99.90;;;;;;5088190;28;20411;-80
2023/09/27 05:20:44;;;;;;;0.20;0.20;;;14.20;99.90;;;;;;5089150;28;20043;-80
2023/09/27 05:23:10;;;;;;;0.22;0.22;;;14.20;99.90;;;;;;5076751;28;20044;-81
2023/09/27 05:25:36;;;;;;;0.20;0.20;;;14.20;99.90;;;;;;5086921;28;20040;-81
2023/09/27 05:28:02;;;;;;;0.20;0.20;;;14.10;99.90;;;;;;5089199;28;20040;-81
2023/09/27 05:30:27;;;;;;;0.20;0.20;;;14.20;99.90;;;;;;5089860;28;20056;-80
2023/09/27 05:32:53;;;;;;;0.17;0.17;;;14.10;99.90;;;;;;5086749;28;20028;-80
2023/09/27 05:35:19;;;;;;;0.10;0.10;;;14.20;99.90;;;;;;5088700;28;20040;-80
2023/09/27 05:37:44;;;;;;;0.20;0.20;;;14.20;99.90;;;;;;5089358;28;20045;-80
2023/09/27 05:40:11;;;;;;;0.10;0.10;;;14.20;99.90;;;;;;5087564;28;20052;-81
2023/09/27 05:42:40;;;;;;;0.10;0.10;;;14.10;99.90;;;;;;5081727;28;20047;-80
2023/09/27 05:45:10;;;;;;;0.10;0.10;;;14.10;99.90;;;;;;5088058;28;20048;-80
2023/09/27 05:47:36;;;;;;;0.15;0.15;;;14.10;99.90;;;;;;5088385;28;20541;-80
2023/09/27 05:50:01;;;;;;;0.10;0.10;;;14.10;99.90;;;;;;5088839;28;20052;-80
2023/09/27 05:52:27;;;;;;;0.10;0.10;;;14.10;99.90;;;;;;5088607;28;20036;-80
2023/09/27 05:54:53;;;;;;;0.20;0.20;;;14.20;99.90;;;;;;5087629;28;20044;-80
2023/09/27 05:57:18;;;;;;;0.20;0.20;;;14.10;99.90;;;;;;5082449;28;20040;-80
2023/09/27 05:59:45;;;;;;;0.10;0.10;;;14.20;99.90;;;;;;5081265;28;20043;-80
2023/09/27 06:02:16;;;;;;;0.20;0.20;;;14.20;99.90;;;;;;5086639;28;20043;-81
2023/09/27 06:04:46;;;;;;;0.10;0.10;;;14.20;99.90;;;;;;5079739;28;20633;-80
2023/09/27 06:07:17;;;;;;;0.10;0.10;;;14.30;99.90;;;;;;5079082;28;20500;-81
2023/09/27 06:09:43;;;;;;;0.20;0.20;;;14.30;99.90;;;;;;5080966;28;20044;-81
2023/09/27 06:12:12;;;;;;;0.10;0.10;;;14.30;99.90;;;;;;5087166;28;20038;-80
2023/09/27 06:14:38;;;;;;;0.20;0.20;;;14.30;99.90;;;;;;5087345;28;20510;-80
2023/09/27 06:17:05;;;;;;;0.10;0.10;;;14.30;99.90;;;;;;5088677;28;20079;-80
2023/09/27 06:19:31;;;;;;;0.10;0.10;;;14.30;99.90;;;;;;5086018;28;20411;-80
2023/09/27 06:21:58;;;;;;;0.10;0.10;;;14.30;99.90;;;;;;5088891;28;20445;-80
2023/09/27 06:24:26;;;;;;;0.20;0.20;;;14.30;99.90;;;;;;5089138;28;20054;-80
2023/09/27 06:26:53;;;;;;;0.10;0.10;;;14.30;99.90;;;;;;5086962;28;20062;-81
2023/09/27 06:29:19;;;;;;;0.10;0.10;;;14.40;99.90;;;;;;5087082;28;20546;-81
2023/09/27 06:31:47;;;;;;;0.20;0.20;;;14.30;99.90;;;;;;5086523;28;20046;-81
2023/09/27 06:34:14;;;;;;;0.10;0.10;;;14.40;99.90;;;;;;5089792;28;20044;-79
2023/09/27 06:36:42;;;;;;;0.10;0.10;;;14.40;99.90;;;;;;5083452;28;20078;-80
2023/09/27 06:39:19;;;;;;;0.20;0.20;;;14.40;99.90;;;;;;5086510;28;20040;-80
2023/09/27 06:41:45;;;;;;;0.20;0.20;;;14.40;99.90;;;;;;5084895;28;20051;-80
2023/09/27 06:44:14;;;;;;;0.10;0.10;;;14.40;99.90;;;;;;5085041;28;20449;-80
2023/09/27 06:46:40;;;;;;;0.10;0.10;;;14.40;99.90;;;;;;5080826;28;20036;-80
2023/09/27 06:49:07;;;;;;;0.10;0.10;;;14.40;99.90;;;;;;5087659;28;20066;-80
2023/09/27 06:51:33;;;;;;;0.10;0.10;;;14.40;99.90;;;;;;5086410;28;20097;-81
2023/09/27 06:53:59;;;;;;;0.20;0.20;;;14.40;99.90;;;;;;5089367;28;20403;-81
2023/09/27 06:56:25;;;;;;;0.10;0.10;;;14.40;99.90;;;;;;5086318;28;20048;-80
2023/09/27 06:58:53;;;;;;;0.10;0.10;;;14.40;99.90;;;;;;5086366;28;20097;-80
2023/09/27 07:01:19;;;;;;;0.20;0.20;;;14.40;99.90;;;;;;5079328;28;20036;-81
2023/09/27 07:03:45;;;;;;;0.20;0.20;;;14.50;99.90;;;;;;5086860;28;20050;-81
2023/09/27 07:06:10;;;;;;;0.10;0.10;;;14.60;99.90;;;;;;5086538;28;20260;-81
2023/09/27 07:08:36;;;;;;;0.10;0.10;;;14.60;99.90;;;;;;5085518;28;20044;-81
2023/09/27 07:11:05;;;;;;;0.10;0.10;;;14.70;99.90;;;;;;5085147;28;20673;-81
2023/09/27 07:13:32;;;;;;;0.20;0.20;;;14.70;99.90;;;;;;5086469;28;20443;-81
2023/09/27 07:15:59;;;;;;;0.20;0.20;;;14.70;99.90;;;;;;5085514;28;20048;-81
2023/09/27 07:18:25;;;;;;;0.20;0.20;;;14.80;99.90;;;;;;5086661;28;20048;-80
2023/09/27 07:20:51;;;;;;;0.20;0.20;;;14.90;99.90;;;;;;5082471;28;20540;-80
2023/09/27 07:23:17;;;;;;;0.10;0.10;;;14.90;99.90;;;;;;5088609;28;20040;-81
2023/09/27 07:25:44;;;;;;;0.20;0.20;;;14.90;99.90;;;;;;5087375;28;20400;-80
2023/09/27 07:28:10;;;;;;;0.20;0.20;;;15.00;99.90;;;;;;5086546;28;20084;-80
2023/09/27 07:30:37;;;;;;;0.20;0.20;;;15.00;99.90;;;;;;5087282;28;20040;-80
2023/09/27 07:33:09;;;;;;;0.17;0.17;;;15.10;99.90;;;;;;5077084;28;20103;-81
2023/09/27 07:35:35;;;;;;;0.10;0.10;;;15.20;99.90;;;;;;5080980;28;20044;-80
2023/09/27 07:38:04;;;;;;;0.13;0.13;;;15.20;99.90;;;;;;5087684;28;20699;-81
2023/09/27 07:40:30;;;;;;;0.10;0.10;;;15.20;99.90;;;;;;5082820;28;20113;-80
2023/09/27 07:42:56;;;;;;;0.10;0.10;;;15.30;99.90;;;;;;5086050;28;20497;-80
2023/09/27 07:45:21;;;;;;;0.10;0.10;;;15.30;99.90;;;;;;5087544;28;20134;-80
2023/09/27 07:47:50;;;;;;;0.10;0.10;;;15.40;99.90;;;;;;5086391;28;20032;-81
2023/09/27 07:50:16;;;;;;;0.10;0.10;;;15.40;99.90;;;;;;5086228;28;20059;-81
2023/09/27 07:52:42;;;;;;;0.20;0.20;;;15.50;99.90;;;;;;5085456;28;20052;-80
2023/09/27 07:55:10;;;;;;;0.10;0.10;;;15.50;99.90;;;;;;5088062;28;20514;-80
2023/09/27 07:57:36;;;;;;;0.20;0.20;;;15.60;99.90;;;;;;5084698;28;20066;-79
2023/09/27 08:00:08;;;;;;;0.20;0.20;;;15.70;99.90;;;;;;5082007;28;20032;-80
2023/09/27 08:02:34;;;;;;;0.20;0.20;;;15.80;99.90;;;;;;5081334;28;20054;-80
2023/09/27 08:05:06;;;;;;;0.20;0.20;;;15.80;99.90;;;;;;5086764;28;20587;-80
2023/09/27 08:07:35;;;;;;;0.20;0.20;;;15.90;99.90;;;;;;5083301;28;20040;-79
2023/09/27 08:10:02;;;;;;;0.20;0.20;;;16.00;99.90;;;;;;5078207;28;20657;-80
2023/09/27 08:12:29;;;;;;;0.20;0.20;;;16.10;99.90;;;;;;5085109;28;20055;-80
2023/09/27 08:14:55;;;;;;;0.10;0.10;;;16.20;99.90;;;;;;5085999;28;20131;-78
2023/09/27 08:17:20;;;;;;;0.10;0.10;;;16.20;99.90;;;;;;5085150;28;20128;-78
2023/09/27 08:19:46;;;;;;;0.15;0.15;;;16.30;99.90;;;;;;5085286;28;20119;-78
2023/09/27 08:22:12;;;;;;;0.20;0.20;;;16.40;99.90;;;;;;5086586;28;20036;-78
2023/09/27 08:24:37;;;;;;;0.20;0.20;;;16.50;99.90;;;;;;5086322;28;20040;-77
2023/09/27 08:27:03;;;;;;;0.20;0.20;;;16.60;99.90;;;;;;5087186;28;20043;-77
2023/09/27 08:29:29;;;;;;;0.20;0.20;;;16.60;99.90;;;;;;5091555;28;20040;-78
2023/09/27 08:31:54;;;;;;;0.20;0.20;;;16.70;99.90;;;;;;5092851;28;20109;-79
2023/09/27 08:34:20;;;;;;;0.13;0.13;;;16.80;99.90;;;;;;5092082;28;20135;-78
2023/09/27 08:36:46;;;;;;;0.20;0.20;;;16.90;99.90;;;;;;5089712;28;20076;-78
2023/09/27 08:39:12;;;;;;;0.20;0.20;;;17.00;99.90;;;;;;5087797;28;20341;-78
2023/09/27 08:41:38;;;;;;;0.20;0.20;;;17.10;99.90;;;;;;5087422;28;20039;-78
2023/09/27 08:44:06;;;;;;;0.20;0.20;;;17.10;99.90;;;;;;5090561;28;20044;-78
2023/09/27 08:46:34;;;;;;;0.20;0.20;;;17.30;99.90;;;;;;5091271;28;20052;-80
2023/09/27 08:49:02;;;;;;;0.20;0.20;;;17.30;99.90;;;;;;5091855;28;20047;-79
2023/09/27 08:51:29;;;;;;;0.22;0.22;;;17.50;99.90;;;;;;5090915;28;20036;-78
2023/09/27 08:53:55;;;;;;;0.20;0.20;;;17.60;99.90;;;;;;5089857;28;20042;-78
2023/09/27 08:56:23;;;;;;;0.20;0.20;;;17.60;99.90;;;;;;5088614;28;20402;-78
2023/09/27 08:58:49;;;;;;;0.20;0.20;;;17.80;99.90;;;;;;5091483;28;20060;-80
2023/09/27 09:01:16;;;;;;;0.20;0.20;;;17.80;99.90;;;;;;5085736;28;20407;-79
2023/09/27 09:03:43;;;;;;;0.20;0.20;;;18.00;99.90;;;;;;5088758;28;20048;-78
2023/09/27 09:06:12;;;;;;;0.20;0.20;;;18.10;99.90;;;;;;5086873;28;20081;-79
2023/09/27 09:08:46;;;;;;;0.20;0.20;;;18.10;99.90;;;;;;5090364;28;20048;-79
2023/09/27 09:11:16;;;;;;;0.20;0.20;;;18.30;99.90;;;;;;5084748;28;20054;-78
2023/09/27 09:14:06;;;;;;;0.20;0.20;;;18.40;99.90;;;;;;5083505;28;20954;-79
2023/09/27 09:16:47;;;;;;;0.20;0.20;;;18.50;99.90;;;;;;5085764;28;20138;-80
2023/09/27 09:19:24;;;;;;;0.20;0.20;;;18.50;99.90;;;;;;5085916;28;20052;-79
2023/09/27 09:22:03;;;;;;;0.10;0.10;;;18.70;99.90;;;;;;5068293;28;20041;-79
2023/09/27 09:24:29;;;;;;;0.10;0.10;;;18.80;99.90;;;;;;5081621;28;20072;-79
2023/09/27 09:27:11;;;;;;;0.20;0.20;;;18.90;99.90;;;;;;5079712;28;20723;-78
2023/09/27 09:29:52;;;;;;;0.20;0.20;;;19.10;99.90;;;;;;5078571;28;20040;-79
2023/09/27 09:32:20;;;;;;;0.20;0.20;;;19.10;99.90;;;;;;5077939;28;20050;-79
2023/09/27 09:34:51;;;;;;;0.20;0.20;;;19.20;99.90;;;;;;5080098;28;20072;-78
2023/09/27 09:37:18;;;;;;;0.20;0.20;;;19.30;99.90;;;;;;5081932;28;20132;-79
2023/09/27 09:39:46;;;;;;;0.20;0.20;;;19.30;99.90;;;;;;5083742;28;20668;-75
2023/09/27 09:42:12;;;;;;;0.20;0.20;;;19.40;99.90;;;;;;5087252;28;20059;-75
2023/09/27 09:44:39;;;;;;;0.20;0.20;;;19.50;99.90;;;;;;5082426;28;20040;-74
2023/09/27 09:47:10;;;;;;;0.20;0.20;;;19.60;99.90;;;;;;5084400;28;20138;-74
2023/09/27 09:49:36;;;;;;;0.20;0.20;;;19.60;99.90;;;;;;5085727;28;20668;-74
2023/09/27 09:52:03;;;;;;;0.20;0.20;;;19.70;99.90;;;;;;5090569;28;20044;-74
2023/09/27 09:54:41;;;;;;;0.15;0.15;;;19.80;99.90;;;;;;5087381;28;20493;-74
2023/09/27 09:57:09;;;;;;;0.20;0.20;;;19.90;99.90;;;;;;5082159;28;20156;-74
2023/09/27 09:59:53;;;;;;;0.20;0.20;;;19.90;99.90;;;;;;5083465;28;20067;-74
2023/09/27 10:02:23;;;;;;;0.20;0.20;;;20.00;99.90;;;;;;5081945;28;20058;-75
2023/09/27 10:04:55;;;;;;;0.20;0.20;;;19.80;99.90;;;;;;5093162;28;20043;-75
2023/09/27 10:07:22;;;;;;;0.20;0.20;;;20.10;99.90;;;;;;5098688;28;20047;-74
2023/09/27 10:09:49;;;;;;;0.10;0.10;;;20.10;99.90;;;;;;5096848;28;20048;-74
2023/09/27 10:12:17;;;;;;;0.20;0.20;;;20.20;99.90;;;;;;5088407;28;20048;-74
2023/09/27 10:14:45;;;;;;;0.20;0.20;;;20.20;99.90;;;;;;5087584;28;20428;-74
2023/09/27 10:17:22;;;;;;;0.20;0.20;;;20.20;99.90;;;;;;5085729;28;20127;-74
2023/09/27 10:20:14;;;;;;;0.20;0.20;;;20.20;99.90;;;;;;5090932;28;20040;-75
2023/09/27 10:22:44;;;;;;;0.20;0.20;;;20.30;99.90;;;;;;5087427;28;20056;-74
2023/09/27 10:25:25;;;;;;;0.20;0.20;;;20.40;99.90;;;;;;5090585;28;20045;-74
2023/09/27 10:28:06;;;;;;;0.30;0.30;;;20.40;99.90;;;;;;5091907;28;20048;-74
2023/09/27 10:30:41;;;;;;;0.20;0.20;;;20.50;99.90;;;;;;5091885;28;20044;-74
2023/09/27 10:33:15;;;;;;;0.20;0.20;;;20.60;99.90;;;;;;5092002;28;20053;-74
2023/09/27 10:35:43;;;;;;;0.30;0.30;;;20.60;99.90;;;;;;5089637;28;20039;-74
2023/09/27 10:38:10;;;;;;;0.20;0.20;;;20.60;99.90;;;;;;5089298;28;20429;-75
2023/09/27 10:40:44;;;;;;;0.20;0.20;;;20.60;99.90;;;;;;5093507;28;20051;-74
2023/09/27 10:43:30;;;;;;;0.20;0.20;;;20.60;99.90;;;;;;5097674;28;20098;-74
2023/09/27 10:45:56;;;;;;;0.20;0.20;;;20.60;99.90;;;;;;5087408;28;20579;-74
2023/09/27 10:48:22;;;;;;;0.20;0.20;;;20.60;99.90;;;;;;5098999;28;20039;-74
2023/09/27 10:50:58;;;;;;;0.20;0.20;;;20.60;99.90;;;;;;5101310;28;20062;-74
2023/09/27 10:53:25;;;;;;;0.25;0.25;;;20.60;99.90;;;;;;5105078;28;20498;-74
2023/09/27 10:55:50;;;;;;;0.20;0.20;;;20.60;99.90;;;;;;5101999;28;20039;-74
2023/09/27 10:58:17;;;;;;;0.20;0.20;;;20.70;99.90;;;;;;5095791;28;20048;-74
2023/09/27 11:00:57;;;;;;;0.20;0.20;;;20.70;99.90;;;;;;5082096;28;20055;-74
2023/09/27 11:03:29;;;;;;;0.20;0.20;;;20.70;99.90;;;;;;5084298;28;20055;-74
2023/09/27 11:06:11;;;;;;;0.20;0.20;;;20.70;99.90;;;;;;5083901;28;20043;-74
2023/09/27 11:08:37;;;;;;;0.20;0.20;;;20.70;99.90;;;;;;5080751;28;20131;-74
2023/09/27 11:11:06;;;;;;;0.20;0.20;;;20.70;99.90;;;;;;5080163;28;20517;-74
2023/09/27 11:13:32;;;;;;;0.20;0.20;;;20.70;99.90;;;;;;5085204;28;20057;-74
2023/09/27 11:16:17;;;;;;;0.20;0.20;;;20.70;99.90;;;;;;5088160;28;20060;-74
2023/09/27 11:18:44;;;;;;;0.20;0.20;;;20.70;99.90;;;;;;5090257;28;20063;-74
2023/09/27 11:21:11;;;;;;;0.20;0.20;;;20.70;99.90;;;;;;5103098;28;20078;-74
2023/09/27 11:23:57;;;;;;;0.20;0.20;;;20.70;99.90;;;;;;5084094;28;20035;-74
2023/09/27 11:26:26;;;;;;;0.20;0.20;;;20.70;99.90;;;;;;5087664;28;20127;-74
2023/09/27 11:29:02;;;;;;;0.38;0.38;;;20.70;99.90;;;;;;5086307;28;20473;-74
2023/09/27 11:31:38;;;;;;;0.20;0.20;;;21.00;99.90;;;;;;5101719;28;20036;-74
2023/09/27 11:34:19;;;;;;;0.20;0.20;;;20.70;99.90;;;;;;5086626;28;20548;-74
2023/09/27 11:36:49;;;;;;;0.30;0.30;;;20.70;99.90;;;;;;5085082;28;20045;-74
2023/09/27 11:39:17;;;;;;;0.20;0.20;;;20.70;99.90;;;;;;5091886;28;20035;-74
2023/09/27 11:41:44;;;;;;;0.20;0.20;;;20.70;99.90;;;;;;5088331;28;20050;-74
2023/09/27 11:44:21;;;;;;;0.20;0.20;;;20.80;99.90;;;;;;5089102;28;20040;-74
2023/09/27 11:46:51;;;;;;;0.20;0.20;;;20.80;99.90;;;;;;5092091;28;20081;-74
2023/09/27 11:49:26;;;;;;;0.20;0.20;;;20.80;99.90;;;;;;5090756;28;20050;-74
2023/09/27 11:51:52;;;;;;;0.20;0.20;;;20.80;99.90;;;;;;5097144;28;20487;-74
2023/09/27 11:54:17;;;;;;;0.20;0.20;;;20.80;99.90;;;;;;5084253;28;20046;-74
2023/09/27 11:56:43;;;;;;;0.20;0.20;;;20.80;99.90;;;;;;5089641;28;20130;-74
2023/09/27 11:59:10;;;;;;;0.20;0.20;;;20.80;99.90;;;;;;5086691;28;20036;-74
2023/09/27 12:01:36;;;;;;;0.20;0.20;;;20.90;99.90;;;;;;5090231;28;20506;-74
2023/09/27 12:04:02;;;;;;;0.20;0.20;;;20.90;99.90;;;;;;5089582;28;20048;-74
2023/09/27 12:06:29;;;;;;;0.20;0.20;;;21.00;99.90;;;;;;5088058;28;20464;-74
2023/09/27 12:08:55;;;;;;;0.20;0.20;;;21.00;99.90;;;;;;5085744;28;20069;-73
2023/09/27 12:11:21;;;;;;;0.20;0.20;;;21.00;99.90;;;;;;5085449;28;20048;-74
2023/09/27 12:13:47;;;;;;;0.20;0.20;;;21.10;99.90;;;;;;5087768;28;20044;-74
2023/09/27 12:16:12;;;;;;;0.20;0.20;;;21.20;99.90;;;;;;5089994;28;20049;-74
2023/09/27 12:18:38;;;;;;;0.20;0.20;;;21.40;99.90;;;;;;5087613;28;20085;-74
2023/09/27 12:21:04;;;;;;;0.20;0.20;;;21.60;99.90;;;;;;5087342;28;20048;-74
2023/09/27 12:23:30;;;;;;;0.20;0.20;;;21.80;99.90;;;;;;5090855;28;20051;-74
2023/09/27 12:25:57;;;;;;;0.20;0.20;;;22.00;99.90;;;;;;5100536;28;20535;-74
2023/09/27 12:28:22;;;;;;;0.20;0.20;;;22.40;99.90;;;;;;5091840;28;20077;-74
2023/09/27 12:30:48;;;;;;;0.20;0.20;;;22.70;99.90;;;;;;5097981;28;20125;-74
2023/09/27 12:33:15;;;;;;;0.20;0.20;;;23.00;99.90;;;;;;5099846;28;20052;-74
2023/09/27 12:35:42;;;;;;;0.20;0.20;;;23.20;99.90;;;;;;5089695;28;20189;-74
2023/09/27 12:38:10;;;;;;;0.20;0.20;;;23.40;99.90;;;;;;5105722;28;20047;-75
2023/09/27 12:40:36;;;;;;;0.20;0.20;;;23.60;99.90;;;;;;5099327;28;20044;-75
2023/09/27 12:43:03;;;;;;;0.20;0.20;;;23.80;99.90;;;;;;5087488;28;20748;-74
2023/09/27 12:45:29;;;;;;;0.20;0.20;;;24.10;99.90;;;;;;5085159;28;20044;-75
2023/09/27 12:47:55;;;;;;;0.20;0.20;;;24.30;99.90;;;;;;5088112;28;20059;-74
2023/09/27 12:50:26;;;;;;;0.20;0.20;;;24.50;99.90;;;;;;5100822;28;20043;-75